Terminal Aerodrome Forecast
Issued by NWS St Louis, MO

Home | Current Version | Previous Version | Text Only | Print | Product List | Glossary On
Versions: 1 2 3 4 5 6 7 8 9 10 11 12 13 14 15 16 17 18 19 20 21 22 23 24 25 26 27 28 29 30 31 32 33
000
FTUS43 KLSX 192300
TAFSTL
TAF
KSTL 192338Z 2000/2106 27007KT P6SM SKC
     FM200100 VRB03KT P6SM SKC
     FM201100 VRB03KT P6SM VCSH BKN060
     FM201400 VRB03KT P6SM BKN060
     FM201600 23008KT P6SM SCT045
     FM210100 19008KT P6SM SCT100=

USA.gov is the U.S. government's official web portal to all federal, state and local government web resources and services.